Time;durP1;ratioP1;P1;durP2;ratioP2;P2;SDS_P1;SDS_P2;PMS_P1;PMS_P2;Temp;Humidity;BMP_temperature;BMP_pressure;BME280_temperature;BME280_humidity;BME280_pressure;Samples;Min_cycle;Max_cycle;Signal;HPM_P1;HPM_P2
2023/06/03 00:00:50;;;;;;;6.80;3.43;;;;;;;-145.18;100.00;46679.94;5045011;28;20495;-60
2023/06/03 00:03:16;;;;;;;5.83;3.43;;;;;;;-145.18;100.00;46685.78;5024715;28;20111;-59
2023/06/03 00:05:42;;;;;;;5.80;3.47;;;;;;;-145.18;100.00;46689.69;5018422;28;20037;-59
2023/06/03 00:08:08;;;;;;;8.33;4.23;;;;;;;-145.18;100.00;46689.69;5036999;28;20116;-59
2023/06/03 00:10:33;;;;;;;8.23;3.97;;;;;;;-145.18;100.00;46681.88;5040443;28;20116;-60
2023/06/03 00:12:59;;;;;;;14.87;3.40;;;;;;;-145.18;100.00;46683.84;5047823;28;20049;-59
2023/06/03 00:15:24;;;;;;;8.23;3.80;;;;;;;-145.18;100.00;46683.84;5045381;28;20029;-60
2023/06/03 00:17:50;;;;;;;5.53;3.30;;;;;;;-145.18;100.00;46689.69;5044895;28;20047;-60
2023/06/03 00:20:16;;;;;;;8.97;4.43;;;;;;;-145.18;100.00;46687.75;5049871;28;20102;-59
2023/06/03 00:22:41;;;;;;;9.90;3.83;;;;;;;-145.18;100.00;46687.75;5020755;28;20029;-59
2023/06/03 00:25:08;;;;;;;8.67;3.80;;;;;;;-145.18;100.00;46687.75;5038278;28;20029;-60
2023/06/03 00:27:37;;;;;;;6.80;3.53;;;;;;;-145.18;100.00;46683.84;5019973;28;20036;-59
2023/06/03 00:30:05;;;;;;;7.93;3.07;;;;;;;-145.18;100.00;46691.66;5045702;28;20036;-60
2023/06/03 00:32:30;;;;;;;7.27;3.60;;;;;;;-145.18;100.00;46685.78;5046787;28;20029;-60
2023/06/03 00:34:55;;;;;;;9.73;4.00;;;;;;;-145.18;100.00;46691.66;5040761;28;20489;-61
2023/06/03 00:37:21;;;;;;;10.00;3.80;;;;;;;-145.18;100.00;46687.75;5042691;28;20045;-60
2023/06/03 00:39:46;;;;;;;5.37;3.30;;;;;;;-145.18;100.00;46691.66;5045904;28;20073;-60
2023/06/03 00:42:12;;;;;;;6.27;3.87;;;;;;;-145.18;100.00;46689.69;5031687;28;20659;-59
2023/06/03 00:44:37;;;;;;;9.37;3.90;;;;;;;-145.18;100.00;46689.69;5021225;28;20040;-59
2023/06/03 00:47:03;;;;;;;9.50;4.17;;;;;;;-145.18;100.00;46689.69;5048242;28;20041;-59
2023/06/03 00:49:30;;;;;;;6.07;3.80;;;;;;;-145.18;100.00;46687.75;5041169;28;20041;-59
2023/06/03 00:51:56;;;;;;;7.83;4.13;;;;;;;-145.18;100.00;46689.69;5041972;28;20124;-59
2023/06/03 00:54:22;;;;;;;10.97;4.17;;;;;;;-145.18;100.00;46683.84;5021052;28;20175;-59
2023/06/03 00:56:48;;;;;;;8.53;4.57;;;;;;;-145.18;100.00;46683.84;5036967;28;20116;-59
2023/06/03 00:59:15;;;;;;;9.87;4.03;;;;;;;-145.18;100.00;46676.03;5021620;28;20037;-60
2023/06/03 01:01:44;;;;;;;11.07;4.90;;;;;;;-145.18;100.00;46683.84;5050461;28;20478;-60
2023/06/03 01:04:16;;;;;;;8.10;4.33;;;;;;;-145.18;100.00;46691.66;5048253;28;20033;-59
2023/06/03 01:07:06;;;;;;;10.17;4.00;;;;;;;-145.18;100.00;46677.97;5044796;28;20041;-60
2023/06/03 01:09:49;;;;;;;11.57;4.27;;;;;;;-145.18;100.00;46677.97;5040255;28;20040;-59
2023/06/03 01:12:48;;;;;;;9.67;4.13;;;;;;;-145.18;100.00;46687.75;5043365;28;20044;-60
2023/06/03 01:15:20;;;;;;;7.67;3.90;;;;;;;-145.18;100.00;46691.66;5042761;28;20032;-59
2023/06/03 01:17:50;;;;;;;11.93;4.33;;;;;;;-145.18;100.00;46679.94;5048417;28;20044;-59
2023/06/03 01:20:17;;;;;;;8.83;4.33;;;;;;;-145.18;100.00;46681.88;5047977;28;20509;-60
2023/06/03 01:22:49;;;;;;;7.73;3.90;;;;;;;-145.18;100.00;46687.75;5041063;28;20510;-59
2023/06/03 01:25:16;;;;;;;9.17;4.20;;;;;;;-145.18;100.00;46695.56;5046701;28;20040;-59
2023/06/03 01:27:48;;;;;;;7.17;4.13;;;;;;;-145.18;100.00;46691.66;5045537;28;20390;-60
2023/06/03 01:30:20;;;;;;;9.70;4.70;;;;;;;-145.18;100.00;46695.56;5043500;28;20379;-60
2023/06/03 01:32:47;;;;;;;10.47;4.80;;;;;;;-145.18;100.00;46687.75;5043239;28;20399;-59
2023/06/03 01:35:14;;;;;;;7.37;4.00;;;;;;;-145.18;100.00;46693.59;5052701;28;20036;-60
2023/06/03 01:37:41;;;;;;;8.70;4.43;;;;;;;-145.18;100.00;46691.66;5045771;28;20058;-59
2023/06/03 01:40:07;;;;;;;7.93;4.87;;;;;;;-145.18;100.00;46693.59;5042072;28;20030;-60
2023/06/03 01:42:33;;;;;;;6.27;4.00;;;;;;;-145.18;100.00;46695.56;5041186;28;20116;-60
2023/06/03 01:45:01;;;;;;;8.43;4.87;;;;;;;-145.18;100.00;46691.66;5046613;28;20033;-60
2023/06/03 01:47:27;;;;;;;9.43;4.83;;;;;;;-145.18;100.00;46693.59;5039304;28;20029;-59
2023/06/03 01:49:53;;;;;;;12.27;4.90;;;;;;;-145.18;100.00;46695.56;5044272;28;20044;-60
2023/06/03 01:52:19;;;;;;;8.77;4.97;;;;;;;-145.18;100.00;46691.66;5050134;28;20029;-60
2023/06/03 01:54:45;;;;;;;7.53;4.50;;;;;;;-145.18;100.00;46691.66;5050111;28;20048;-61
2023/06/03 01:57:10;;;;;;;9.30;4.50;;;;;;;-145.18;100.00;46691.66;5044254;28;20048;-60
2023/06/03 01:59:36;;;;;;;8.77;4.63;;;;;;;-145.18;100.00;46695.56;5049829;28;20464;-59
2023/06/03 02:02:02;;;;;;;8.30;4.77;;;;;;;-145.18;100.00;46695.56;5046459;28;20549;-59
2023/06/03 02:04:27;;;;;;;8.00;4.83;;;;;;;-145.18;100.00;46687.75;5030252;28;20037;-60
2023/06/03 02:06:55;;;;;;;9.60;4.87;;;;;;;-145.18;100.00;46693.59;5002849;28;20064;-59
2023/06/03 02:09:21;;;;;;;9.77;5.63;;;;;;;-145.18;100.00;46693.59;5044063;28;20044;-59
2023/06/03 02:11:47;;;;;;;12.60;5.43;;;;;;;-145.18;100.00;46691.66;5047445;28;20057;-59
2023/06/03 02:14:14;;;;;;;10.87;5.53;;;;;;;-145.18;100.00;46695.56;5049356;28;20029;-59
2023/06/03 02:16:40;;;;;;;11.57;4.77;;;;;;;-145.18;100.00;46697.50;5049448;28;20573;-60
2023/06/03 02:19:19;;;;;;;10.90;5.10;;;;;;;-145.18;100.00;46691.66;5051320;28;20482;-59
2023/06/03 02:21:46;;;;;;;9.17;5.17;;;;;;;-145.18;100.00;46693.59;5043272;28;20047;-59
2023/06/03 02:24:16;;;;;;;10.33;5.40;;;;;;;-145.18;100.00;46693.59;5049923;28;20044;-59
2023/06/03 02:26:53;;;;;;;7.57;5.03;;;;;;;-145.18;100.00;46693.59;5039483;28;20108;-59
2023/06/03 02:29:19;;;;;;;12.57;5.70;;;;;;;-145.18;100.00;46693.59;5039933;28;20021;-60
2023/06/03 02:31:46;;;;;;;10.23;5.63;;;;;;;-145.18;100.00;46699.47;5028290;28;20029;-59
2023/06/03 02:34:12;;;;;;;10.30;5.13;;;;;;;-145.18;100.00;46697.50;5043805;28;20033;-59
2023/06/03 02:36:38;;;;;;;7.70;4.77;;;;;;;-145.18;100.00;46695.56;5047595;28;20055;-59
2023/06/03 02:39:04;;;;;;;7.80;4.40;;;;;;;-145.18;100.00;46695.56;5046134;28;20041;-59
2023/06/03 02:41:30;;;;;;;7.93;5.00;;;;;;;-145.18;100.00;46697.50;5046714;28;20040;-60
2023/06/03 02:43:55;;;;;;;10.40;6.23;;;;;;;-145.18;100.00;46691.66;5039289;28;20446;-59
2023/06/03 02:46:20;;;;;;;11.50;5.40;;;;;;;-145.18;100.00;46697.50;5049136;28;20045;-59
2023/06/03 02:48:46;;;;;;;9.40;5.43;;;;;;;-145.18;100.00;46695.56;5042546;28;20029;-59
2023/06/03 02:51:11;;;;;;;12.17;5.60;;;;;;;-145.18;100.00;46695.56;5046802;28;20116;-59
2023/06/03 02:53:37;;;;;;;7.07;5.13;;;;;;;-145.18;100.00;46695.56;5023574;28;20037;-60
2023/06/03 02:56:02;;;;;;;11.33;5.27;;;;;;;-145.18;100.00;46697.50;5046612;28;20393;-59
2023/06/03 02:58:28;;;;;;;8.13;4.97;;;;;;;-145.18;100.00;46695.56;5044019;28;20083;-59
2023/06/03 03:00:53;;;;;;;10.27;5.50;;;;;;;-145.18;100.00;46695.56;5029488;28;20087;-59
2023/06/03 03:03:19;;;;;;;10.27;5.43;;;;;;;-145.18;100.00;46689.69;5046368;28;20051;-59
2023/06/03 03:05:44;;;;;;;7.13;5.10;;;;;;;-145.18;100.00;46691.66;5031215;28;20033;-60
2023/06/03 03:08:10;;;;;;;10.80;5.30;;;;;;;-145.18;100.00;46695.56;5044400;28;20029;-59
2023/06/03 03:10:36;;;;;;;10.30;4.63;;;;;;;-145.18;100.00;46689.69;5050320;28;20029;-60
2023/06/03 03:13:01;;;;;;;8.43;5.13;;;;;;;-145.18;100.00;46697.50;5038928;28;20036;-60
2023/06/03 03:15:26;;;;;;;9.03;4.90;;;;;;;-145.18;100.00;46695.56;5043467;28;20032;-60
2023/06/03 03:17:52;;;;;;;7.67;4.97;;;;;;;-145.18;100.00;46695.56;5039892;28;20403;-59
2023/06/03 03:20:17;;;;;;;17.33;6.80;;;;;;;-145.18;100.00;46693.59;5044999;28;20095;-60
2023/06/03 03:22:46;;;;;;;8.23;4.77;;;;;;;-145.18;100.00;46695.56;5043651;28;20039;-60
2023/06/03 03:25:12;;;;;;;7.97;4.90;;;;;;;-145.18;100.00;46693.59;5046252;28;20103;-59
2023/06/03 03:27:37;;;;;;;8.17;4.20;;;;;;;-145.18;100.00;46693.59;5048184;28;20551;-59
2023/06/03 03:30:04;;;;;;;10.67;5.37;;;;;;;-145.18;100.00;46697.50;5018703;28;20037;-59
2023/06/03 03:32:31;;;;;;;9.73;4.67;;;;;;;-145.18;100.00;46695.56;5042745;28;20033;-60
2023/06/03 03:35:16;;;;;;;6.83;3.93;;;;;;;-145.18;100.00;46697.50;5048771;28;20037;-60
2023/06/03 03:37:43;;;;;;;9.53;4.83;;;;;;;-145.18;100.00;46695.56;5043956;28;20083;-59
2023/06/03 03:40:21;;;;;;;12.80;4.60;;;;;;;-145.18;100.00;46697.50;5031097;28;20115;-59
2023/06/03 03:42:54;;;;;;;7.13;4.00;;;;;;;-145.18;100.00;46697.50;5045812;28;20025;-59
2023/06/03 03:45:33;;;;;;;7.93;4.40;;;;;;;-145.18;100.00;46693.59;5042368;28;20124;-60
2023/06/03 03:48:09;;;;;;;6.63;4.30;;;;;;;-145.18;100.00;46697.50;5042201;28;20033;-59
2023/06/03 03:50:45;;;;;;;8.43;4.50;;;;;;;-145.18;100.00;46695.56;5044570;28;20049;-60
2023/06/03 03:53:15;;;;;;;5.80;3.60;;;;;;;-145.18;100.00;46687.75;5038051;28;20403;-59
2023/06/03 03:55:43;;;;;;;9.73;4.10;;;;;;;-145.18;100.00;46677.97;5043324;28;20040;-59
2023/06/03 03:58:36;;;;;;;14.27;5.47;;;;;;;-145.18;100.00;46670.16;5043454;28;20029;-59
2023/06/03 04:01:29;;;;;;;10.03;4.17;;;;;;;-145.18;100.00;46666.25;5036751;28;20033;-59
2023/06/03 04:03:55;;;;;;;7.87;4.10;;;;;;;-145.18;100.00;46666.25;5038194;28;20033;-59
2023/06/03 04:06:36;;;;;;;7.23;4.40;;;;;;;-145.18;100.00;46646.72;5020956;28;20103;-59
2023/06/03 04:09:05;;;;;;;6.83;3.80;;;;;;;-145.18;100.00;46640.88;5038382;28;20077;-59
2023/06/03 04:11:41;;;;;;;6.93;3.80;;;;;;;-145.18;100.00;46654.53;5042687;28;20053;-59
2023/06/03 04:14:08;;;;;;;;;;;;;;;-145.18;100.00;46635.00;5040119;28;20025;-59
2023/06/03 04:16:41;;;;;;;11.03;4.07;;;;;;;-145.18;100.00;46627.19;5047782;28;20003;-59
2023/06/03 04:19:19;;;;;;;9.63;4.00;;;;;;;-145.18;100.00;46623.28;5046848;28;20051;-59
2023/06/03 04:21:45;;;;;;;6.50;3.33;;;;;;;-145.18;100.00;46623.28;5041717;28;20036;-59
2023/06/03 04:24:11;;;;;;;7.57;3.80;;;;;;;-145.18;100.00;46574.44;5048043;28;20386;-59
2023/06/03 04:26:36;;;;;;;6.47;3.37;;;;;;;-145.18;100.00;46562.72;5041514;28;20048;-59
2023/06/03 04:29:02;;;;;;;5.07;3.30;;;;;;;-145.18;100.00;46562.72;5033921;28;20032;-59
2023/06/03 04:31:28;;;;;;;6.50;3.30;;;;;;;-145.18;100.00;46558.81;5042411;28;20532;-59
2023/06/03 04:33:53;;;;;;;6.53;3.13;;;;;;;-145.18;100.00;46554.91;5016704;28;20045;-59
2023/06/03 04:36:18;;;;;;;7.43;3.30;;;;;;;-145.18;100.00;46554.91;5021892;28;20033;-59
2023/06/03 04:38:45;;;;;;;6.63;3.00;;;;;;;-145.18;100.00;46552.97;5039352;28;20087;-59
2023/06/03 04:41:11;;;;;;;6.60;2.70;;;;;;;-145.18;100.00;46562.72;5040768;28;20033;-59
2023/06/03 04:43:38;;;;;;;9.57;3.60;;;;;;;-145.18;100.00;46562.72;5039432;28;20108;-59
2023/06/03 04:46:07;;;;;;;5.27;3.00;;;;;;;-145.18;100.00;46566.63;5041546;28;20445;-59
2023/06/03 04:48:33;;;;;;;5.77;3.17;;;;;;;-145.18;100.00;46558.81;5039245;28;20031;-59
2023/06/03 04:51:00;;;;;;;4.63;2.97;;;;;;;-145.18;100.00;46564.69;5036639;28;20033;-60
2023/06/03 04:53:25;;;;;;;6.47;2.90;;;;;;;-145.18;100.00;46568.59;5047335;28;20031;-59
2023/06/03 04:55:52;;;;;;;10.67;2.80;;;;;;;-145.18;100.00;46568.59;5045699;28;20029;-59
2023/06/03 04:58:18;;;;;;;6.23;3.13;;;;;;;-145.18;100.00;46568.59;5047433;28;20044;-59
2023/06/03 05:00:44;;;;;;;6.73;3.63;;;;;;;-145.18;100.00;46570.53;5056734;28;20044;-59
2023/06/03 05:03:10;;;;;;;5.57;2.80;;;;;;;-145.18;100.00;46578.34;5052707;28;20037;-59
2023/06/03 05:05:41;;;;;;;5.53;3.10;;;;;;;-145.18;100.00;46574.44;5021613;28;20031;-58
2023/06/03 05:08:07;;;;;;;6.73;2.63;;;;;;;-145.18;100.00;46578.34;5047215;28;20037;-59
2023/06/03 05:10:34;;;;;;;4.67;2.50;;;;;;;-145.18;100.00;46572.50;5025869;28;20116;-60
2023/06/03 05:12:59;;;;;;;9.10;3.30;;;;;;;-145.18;100.00;46578.34;5041205;28;20079;-60
2023/06/03 05:15:25;;;;;;;5.97;3.13;;;;;;;-145.18;100.00;46582.25;5049504;28;20037;-59
2023/06/03 05:17:51;;;;;;;5.43;2.60;;;;;;;-145.18;100.00;46578.34;5048814;28;20043;-60
2023/06/03 05:20:17;;;;;;;5.97;2.47;;;;;;;-145.18;100.00;46572.50;5048191;28;20404;-59
2023/06/03 05:22:42;;;;;;;9.13;3.37;;;;;;;-145.18;100.00;46586.16;5034773;28;20030;-59
2023/06/03 05:25:08;;;;;;;9.63;2.80;;;;;;;-145.18;100.00;46586.16;5053304;28;20068;-59
2023/06/03 05:27:34;;;;;;;6.43;3.03;;;;;;;-145.18;100.00;46592.03;5049750;28;20487;-58
2023/06/03 05:29:59;;;;;;;6.47;2.80;;;;;;;-145.18;100.00;46601.78;5046177;28;20083;-59
2023/06/03 05:32:24;;;;;;;4.93;2.70;;;;;;;-145.18;100.00;46597.88;5052191;28;20501;-60
2023/06/03 05:34:50;;;;;;;5.47;3.00;;;;;;;-145.18;100.00;46601.78;5047144;28;20044;-59
2023/06/03 05:37:16;;;;;;;4.83;3.00;;;;;;;-145.18;100.00;46613.50;5042281;28;20128;-59
2023/06/03 05:39:41;;;;;;;5.63;3.17;;;;;;;-145.18;100.00;46617.41;5052972;28;20502;-59
2023/06/03 05:42:06;;;;;;;6.63;3.20;;;;;;;-145.18;100.00;46617.41;5046813;28;20033;-59
2023/06/03 05:44:32;;;;;;;5.90;3.07;;;;;;;-145.18;100.00;46613.50;5025495;28;20035;-59
2023/06/03 05:46:57;;;;;;;5.20;2.70;;;;;;;-145.18;100.00;46617.41;5036341;28;20034;-59
2023/06/03 05:49:23;;;;;;;6.00;3.10;;;;;;;-145.18;100.00;46607.66;5051366;28;20035;-59
2023/06/03 05:51:48;;;;;;;7.70;3.10;;;;;;;-145.18;100.00;46640.88;5047705;28;20104;-59
2023/06/03 05:54:13;;;;;;;4.40;2.50;;;;;;;-145.18;100.00;46633.06;5041925;28;20037;-59
2023/06/03 05:56:39;;;;;;;6.07;2.63;;;;;;;-145.18;100.00;46650.63;5049101;28;20069;-60
2023/06/03 05:59:05;;;;;;;4.07;2.30;;;;;;;-145.18;100.00;46644.78;5030813;28;20074;-59
2023/06/03 06:01:33;;;;;;;4.40;2.70;;;;;;;-145.18;100.00;46648.69;5044812;28;20029;-59
2023/06/03 06:03:59;;;;;;;3.87;2.57;;;;;;;-145.18;100.00;46672.13;5037691;28;20033;-59
2023/06/03 06:06:25;;;;;;;4.37;2.67;;;;;;;-145.18;100.00;46662.34;5048491;28;20032;-59
2023/06/03 06:08:50;;;;;;;5.00;2.57;;;;;;;-145.18;100.00;46656.50;5045918;28;20058;-59
2023/06/03 06:11:16;;;;;;;4.10;2.27;;;;;;;-145.18;100.00;46672.13;5047610;28;20029;-60
2023/06/03 06:13:41;;;;;;;5.70;2.60;;;;;;;-145.18;100.00;46666.25;5047359;28;20056;-59
2023/06/03 06:16:07;;;;;;;7.37;2.30;;;;;;;-145.18;100.00;46676.03;5049625;28;20501;-60
2023/06/03 06:18:32;;;;;;;6.13;2.33;;;;;;;-145.18;100.00;46676.03;5021273;28;20041;-59
2023/06/03 06:20:58;;;;;;;6.53;2.10;;;;;;;-145.18;100.00;46656.50;5049015;28;20387;-59
2023/06/03 06:23:25;;;;;;;7.77;2.57;;;;;;;-145.18;100.00;46687.75;5045182;28;20041;-59
2023/06/03 06:25:52;;;;;;;6.67;2.60;;;;;;;-145.18;100.00;46752.19;5040502;28;20041;-59
2023/06/03 06:28:20;;;;;;;6.27;2.57;;;;;;;-145.18;100.00;46875.28;5046014;28;20013;-59
2023/06/03 06:30:45;;;;;;;4.50;2.17;;;;;;;-145.18;100.00;47078.44;5039909;28;20033;-60
2023/06/03 06:33:17;;;;;;;4.90;2.03;;;;;;;-145.18;100.00;47078.44;5039994;28;20033;-60
2023/06/03 06:35:43;;;;;;;8.83;3.07;;;;;;;-145.18;100.00;47084.28;5033105;28;20484;-59
2023/06/03 06:38:10;;;;;;;6.43;2.97;;;;;;;-145.18;100.00;47297.22;5014568;28;20050;-59
2023/06/03 06:40:37;;;;;;;6.10;2.60;;;;;;;-145.18;100.00;47367.56;5013330;28;20057;-60
2023/06/03 06:43:03;;;;;;;4.50;2.23;;;;;;;-145.18;100.00;47332.41;5010759;28;20037;-59
2023/06/03 06:45:30;;;;;;;4.60;2.03;;;;;;;-145.18;100.00;47385.16;5014096;28;20037;-59
2023/06/03 06:48:14;;;;;;;3.50;2.20;;;;;;;-145.18;100.00;47379.28;5012350;28;20034;-59
2023/06/03 06:50:46;;;;;;;5.67;2.10;;;;;;;-145.18;100.00;47344.13;5015040;28;20037;-59
2023/06/03 06:53:13;;;;;;;4.50;2.20;;;;;;;-145.18;100.00;47348.03;5018073;28;20029;-60
2023/06/03 06:55:41;;;;;;;3.77;1.50;;;;;;;-145.18;100.00;47303.09;5017969;28;20453;-59
2023/06/03 06:58:10;;;;;;;4.10;2.20;;;;;;;-145.18;100.00;47299.19;5017007;28;20095;-60
2023/06/03 07:00:35;;;;;;;3.70;2.20;;;;;;;-145.18;100.00;47301.16;5009550;28;20036;-59
2023/06/03 07:03:01;;;;;;;4.87;1.97;;;;;;;-145.18;100.00;47299.19;5017501;28;20120;-59
2023/06/03 07:05:26;;;;;;;5.33;2.00;;;;;;;-145.18;100.00;47275.75;5018356;28;20030;-60
2023/06/03 07:07:52;;;;;;;3.30;1.77;;;;;;;-145.18;100.00;47258.16;5014956;28;20100;-59
2023/06/03 07:10:21;;;;;;;3.97;1.87;;;;;;;-145.18;100.00;47267.94;5007758;28;20029;-59
2023/06/03 07:12:47;;;;;;;3.57;1.80;;;;;;;-145.18;100.00;47250.34;5021074;28;20036;-59
2023/06/03 07:15:12;;;;;;;2.53;1.27;;;;;;;-145.18;100.00;47250.34;5025924;28;20045;-60
2023/06/03 07:17:39;;;;;;;4.90;1.93;;;;;;;-145.18;100.00;47240.56;5027259;28;20022;-59
2023/06/03 07:20:06;;;;;;;2.90;1.70;;;;;;;-145.18;100.00;47240.56;5024283;28;20026;-59
2023/06/03 07:22:32;;;;;;;4.60;1.70;;;;;;;-145.18;100.00;47234.72;5021609;28;20156;-60
2023/06/03 07:24:58;;;;;;;4.13;2.33;;;;;;;-145.18;100.00;47228.84;5020015;28;20029;-59
2023/06/03 07:27:28;;;;;;;4.63;1.63;;;;;;;-145.18;100.00;47228.84;5010943;28;20022;-60
2023/06/03 07:29:58;;;;;;;4.40;2.47;;;;;;;-145.18;100.00;47223.00;5022912;28;20487;-60
2023/06/03 07:32:25;;;;;;;4.93;1.90;;;;;;;-145.18;100.00;47226.91;5018315;28;20033;-59
2023/06/03 07:34:50;;;;;;;5.17;2.20;;;;;;;-145.18;100.00;47221.03;5010769;28;20668;-59
2023/06/03 07:37:17;;;;;;;5.17;2.30;;;;;;;-145.18;100.00;47219.09;5017268;28;20049;-60
2023/06/03 07:39:43;;;;;;;3.37;2.03;;;;;;;-145.18;100.00;47199.56;5033499;28;20033;-60
2023/06/03 07:42:20;;;;;;;3.07;1.80;;;;;;;-145.18;100.00;47199.56;5015583;28;20094;-60
2023/06/03 07:44:48;;;;;;;5.37;2.00;;;;;;;-145.18;100.00;47207.38;5033377;28;20029;-59
2023/06/03 07:47:15;;;;;;;5.40;2.20;;;;;;;-145.18;100.00;47191.75;5031491;28;20060;-60
2023/06/03 07:49:45;;;;;;;3.77;1.77;;;;;;;-145.18;100.00;47183.94;5038032;28;20037;-59
2023/06/03 07:52:17;;;;;;;2.37;1.50;;;;;;;-145.18;100.00;47185.88;5023156;28;20044;-60
2023/06/03 07:54:42;;;;;;;2.60;1.60;;;;;;;-145.18;100.00;47185.88;5036051;28;20116;-60
2023/06/03 07:57:08;;;;;;;2.77;1.53;;;;;;;-145.18;100.00;47185.88;5043342;28;20488;-59
2023/06/03 07:59:33;;;;;;;3.57;1.83;;;;;;;-145.18;100.00;47201.50;5045730;28;20032;-59
2023/06/03 08:02:00;;;;;;;4.63;1.73;;;;;;;-145.18;100.00;47174.16;5045317;28;20518;-59
2023/06/03 08:04:29;;;;;;;4.40;1.73;;;;;;;-145.18;100.00;47174.16;5042560;28;20540;-60
2023/06/03 08:06:56;;;;;;;4.27;1.77;;;;;;;-145.18;100.00;47172.19;5037998;28;20033;-60
2023/06/03 08:09:35;;;;;;;5.37;1.70;;;;;;;-145.18;100.00;47170.25;5018183;28;20495;-60
2023/06/03 08:12:04;;;;;;;3.50;1.80;;;;;;;-145.18;100.00;47166.34;5039397;28;20049;-60
2023/06/03 08:14:32;;;;;;;4.37;1.77;;;;;;;-145.18;100.00;47183.94;5033935;28;20041;-59
2023/06/03 08:17:08;;;;;;;2.43;1.37;;;;;;;-145.18;100.00;47156.56;5038603;28;20838;-60
2023/06/03 08:19:34;;;;;;;;;;;;;;;-145.18;100.00;47158.53;5037474;28;20031;-60
2023/06/03 08:21:59;;;;;;;;;;;;;;;-145.18;100.00;47166.34;5037393;28;19997;-60
2023/06/03 08:24:24;;;;;;;2.30;1.20;;;;;;;-145.18;100.00;47156.56;5035455;28;20016;-59
2023/06/03 08:26:50;;;;;;;8.37;1.70;;;;;;;-145.18;100.00;47148.75;5032273;28;20475;-59
2023/06/03 08:29:16;;;;;;;1.90;1.60;;;;;;;-145.18;100.00;47139.00;5034084;28;20041;-59
2023/06/03 08:31:41;;;;;;;1.60;1.40;;;;;;;-145.18;100.00;47158.53;5039343;28;20108;-60
2023/06/03 08:34:06;;;;;;;3.33;1.30;;;;;;;-145.18;100.00;47137.03;5036222;28;20494;-60
2023/06/03 08:36:32;;;;;;;3.50;1.47;;;;;;;-145.18;100.00;47142.91;5038099;28;20028;-59
2023/06/03 08:38:58;;;;;;;1.53;1.10;;;;;;;-145.18;100.00;47150.72;5036864;28;20059;-60
2023/06/03 08:41:40;;;;;;;3.40;1.50;;;;;;;-145.18;100.00;47125.31;5039007;28;20028;-59
2023/06/03 08:44:17;;;;;;;2.23;1.40;;;;;;;-145.18;100.00;47133.13;5034084;28;20029;-59
2023/06/03 08:47:16;;;;;;;2.83;1.50;;;;;;;-145.18;100.00;47129.22;5037996;28;20024;-60
2023/06/03 08:49:57;;;;;;;1.90;1.30;;;;;;;-145.18;100.00;47125.31;5034088;28;20029;-60
2023/06/03 08:52:25;;;;;;;2.53;1.40;;;;;;;-145.18;100.00;47113.59;5032794;28;20547;-60
2023/06/03 08:54:55;;;;;;;2.80;1.20;;;;;;;-145.18;100.00;47117.50;5036541;28;20033;-60
2023/06/03 08:57:21;;;;;;;17.23;2.10;;;;;;;-145.18;100.00;47109.69;5032864;28;20029;-60
2023/06/03 08:59:52;;;;;;;3.13;1.43;;;;;;;-145.18;100.00;47105.78;5031172;28;20040;-60
2023/06/03 09:02:18;;;;;;;2.50;1.20;;;;;;;-145.18;100.00;47105.78;5039416;28;20031;-60
2023/06/03 09:04:45;;;;;;;3.80;1.30;;;;;;;-145.18;100.00;47123.38;5044615;28;20021;-60
2023/06/03 09:07:11;;;;;;;3.70;1.50;;;;;;;-145.18;100.00;47117.50;5027707;28;20031;-60
2023/06/03 09:09:37;;;;;;;1.97;1.20;;;;;;;-145.18;100.00;47109.69;5042219;28;20037;-60
2023/06/03 09:12:03;;;;;;;3.43;1.17;;;;;;;-145.18;100.00;47127.28;5025388;28;20112;-60
2023/06/03 09:14:30;;;;;;;5.40;1.63;;;;;;;-145.18;100.00;47101.88;5041611;28;20110;-59
2023/06/03 09:16:55;;;;;;;2.20;1.17;;;;;;;-145.18;100.00;47125.31;5048118;28;20028;-60
2023/06/03 09:19:21;;;;;;;3.10;1.60;;;;;;;-145.18;100.00;47119.47;5038474;28;20028;-59
2023/06/03 09:21:49;;;;;;;3.83;1.50;;;;;;;-145.18;100.00;47103.81;5025245;28;20040;-60
2023/06/03 09:24:15;;;;;;;1.93;1.50;;;;;;;-145.18;100.00;47107.72;5038374;28;20033;-59
2023/06/03 09:26:40;;;;;;;2.50;1.30;;;;;;;-145.18;100.00;47111.66;5045930;28;20025;-60
2023/06/03 09:29:06;;;;;;;2.43;1.30;;;;;;;-145.18;100.00;47113.59;5040720;28;20029;-60
2023/06/03 09:31:32;;;;;;;1.80;1.40;;;;;;;-145.18;100.00;47082.34;5038867;28;20060;-60
2023/06/03 09:33:57;;;;;;;3.07;1.10;;;;;;;-145.18;100.00;47096.00;5041550;28;20407;-60
2023/06/03 09:36:25;;;;;;;2.63;1.27;;;;;;;-145.18;100.00;47090.16;5039960;28;20067;-60
2023/06/03 09:38:53;;;;;;;4.27;1.50;;;;;;;-145.18;100.00;47094.06;5043217;28;20037;-60
2023/06/03 09:41:20;;;;;;;4.57;1.33;;;;;;;-145.18;100.00;47090.16;5038888;28;20064;-60
2023/06/03 09:43:52;;;;;;;4.17;1.50;;;;;;;-145.18;100.00;47086.25;5046198;28;20526;-60
2023/06/03 09:46:19;;;;;;;6.87;2.40;;;;;;;-145.18;100.00;47090.16;5046051;28;20441;-59
2023/06/03 09:48:44;;;;;;;2.43;1.13;;;;;;;-145.18;100.00;47096.00;5043992;28;20415;-60
2023/06/03 09:51:10;;;;;;;5.10;1.53;;;;;;;-145.18;100.00;47088.19;5035188;28;20514;-60
2023/06/03 09:53:35;;;;;;;4.03;1.03;;;;;;;-145.18;100.00;47082.34;5041880;28;20036;-60
2023/06/03 09:56:20;;;;;;;5.73;1.20;;;;;;;-145.18;94.40;47072.56;5039616;28;20051;-61
2023/06/03 09:58:46;;;;;;;3.03;1.08;;;;;;;-145.18;89.59;47082.34;5050815;28;20490;-60
2023/06/03 10:01:11;;;;;;;3.20;1.30;;;;;;;-145.18;91.40;47082.34;5031481;28;20109;-60
2023/06/03 10:03:37;;;;;;;1.63;1.27;;;;;;;-145.18;88.97;47074.53;5026484;28;20033;-60
2023/06/03 10:06:18;;;;;;;4.50;1.37;;;;;;;-145.18;99.32;47076.47;5025690;28;20148;-60
2023/06/03 10:08:43;;;;;;;2.50;1.20;;;;;;;-145.18;94.67;47082.34;5027751;28;20576;-60
2023/06/03 10:11:09;;;;;;;1.80;1.10;;;;;;;-145.18;92.47;47066.72;5044768;28;20048;-60
2023/06/03 10:13:34;;;;;;;3.23;1.00;;;;;;;-145.18;100.00;47064.75;5041455;28;20087;-60
2023/06/03 10:16:02;;;;;;;1.50;1.30;;;;;;;-145.18;95.37;47060.84;5041287;28;20128;-60
2023/06/03 10:18:39;;;;;;;2.63;1.00;;;;;;;-145.18;87.69;47066.72;5052004;28;20131;-60
2023/06/03 10:21:10;;;;;;;3.20;1.40;;;;;;;-145.18;93.92;47074.53;5046511;28;20051;-60
2023/06/03 10:23:41;;;;;;;7.80;1.30;;;;;;;-145.18;95.69;47051.09;5049489;28;20103;-60
2023/06/03 10:26:07;;;;;;;3.57;1.20;;;;;;;-145.18;92.23;47055.00;5039846;28;20037;-60
2023/06/03 10:28:33;;;;;;;4.97;1.50;;;;;;;-145.18;86.37;47055.00;5047311;28;20021;-60
2023/06/03 10:31:03;;;;;;;2.43;1.50;;;;;;;-145.18;85.89;47053.03;5019268;28;20095;-60
2023/06/03 10:33:29;;;;;;;3.03;1.30;;;;;;;-145.18;87.76;47043.28;5041454;28;20083;-60
2023/06/03 10:35:56;;;;;;;3.80;1.07;;;;;;;-145.18;73.53;47058.91;5033469;28;20037;-60
2023/06/03 10:38:22;;;;;;;2.07;1.10;;;;;;;-145.18;80.46;47058.91;5026082;28;20042;-61
2023/06/03 10:40:49;;;;;;;2.77;1.10;;;;;;;-145.18;76.01;47049.13;5043494;28;20478;-58
2023/06/03 10:43:15;;;;;;;1.33;1.10;;;;;;;-145.18;75.29;47051.09;5046896;28;20487;-59
2023/06/03 10:45:42;;;;;;;3.37;1.40;;;;;;;-145.18;69.97;47055.00;5052057;28;20025;-59
2023/06/03 10:48:15;;;;;;;2.00;1.17;;;;;;;-145.18;68.24;47055.00;5047814;28;20049;-59
2023/06/03 10:50:40;;;;;;;4.67;1.20;;;;;;;-145.18;74.02;47031.53;5045982;28;20033;-59
2023/06/03 10:53:43;;;;;;;3.40;1.00;;;;;;;-145.18;76.04;47037.41;5049798;28;20041;-59
2023/06/03 10:56:27;;;;;;;2.40;1.20;;;;;;;-145.18;80.41;47027.63;5042804;28;20544;-59
2023/06/03 10:59:05;;;;;;;3.23;1.17;;;;;;;-145.18;71.95;47039.34;5045950;28;20388;-59
2023/06/03 11:02:04;;;;;;;1.57;0.90;;;;;;;-145.18;67.24;47035.44;5041124;28;20064;-59
2023/06/03 11:04:31;;;;;;;2.20;1.10;;;;;;;-145.18;73.96;47017.88;5000362;28;20087;-59
2023/06/03 11:06:57;;;;;;;1.47;0.80;;;;;;;-145.18;62.47;47025.69;5050922;28;20037;-59
2023/06/03 11:09:36;;;;;;;5.60;1.17;;;;;;;-145.18;71.15;47019.81;5042598;28;20379;-59
2023/06/03 11:12:09;;;;;;;2.23;1.13;;;;;;;-145.18;72.46;47004.19;5040548;28;20397;-59
2023/06/03 11:14:42;;;;;;;3.03;1.10;;;;;;;-145.18;70.20;47031.53;5043274;28;20051;-58